Time;durP1;ratioP1;P1;durP2;ratioP2;P2;SDS_P1;SDS_P2;PMS_P1;PMS_P2;Temp;Humidity;BMP_temperature;BMP_pressure;BME280_temperature;BME280_humidity;BME280_pressure;Samples;Min_cycle;Max_cycle;Signal;HPM_P1;HPM_P2
2022/12/14 00:00:58;;;;;;;;;50.75;44.25;;;;;1.93;58.99;99205.31;5037464;28;45450;-66
2022/12/14 00:03:23;;;;;;;;;58.50;50.50;;;;;1.92;58.96;99203.63;5037101;28;46332;-66
2022/12/14 00:05:49;;;;;;;;;54.25;44.75;;;;;1.97;58.84;99201.75;5037047;28;45372;-65
2022/12/14 00:08:16;;;;;;;;;50.75;43.00;;;;;1.97;58.33;99192.25;5037901;28;45318;-67
2022/12/14 00:10:44;;;;;;;;;40.75;39.00;;;;;1.97;58.47;99196.56;5020388;28;45427;-67
2022/12/14 00:13:15;;;;;;;;;54.50;41.00;;;;;2.02;58.89;99197.28;5037771;28;46217;-66
2022/12/14 00:15:41;;;;;;;;;42.75;39.50;;;;;2.06;59.02;99200.66;5020222;28;45471;-69
2022/12/14 00:18:07;;;;;;;;;43.00;38.75;;;;;2.09;58.11;99205.78;5039024;28;45395;-67
2022/12/14 00:20:33;;;;;;;;;46.25;40.50;;;;;2.09;58.94;99205.78;5039915;28;45249;-67
2022/12/14 00:22:58;;;;;;;;;40.25;38.00;;;;;2.11;59.30;99207.41;5039742;28;46434;-68
2022/12/14 00:25:24;;;;;;;;;43.25;40.00;;;;;2.14;58.37;99206.50;5038394;28;45281;-66
2022/12/14 00:27:50;;;;;;;;;46.25;42.00;;;;;2.17;58.78;99212.47;5037210;28;45278;-68
2022/12/14 00:30:19;;;;;;;;;43.25;39.75;;;;;2.17;59.05;99199.50;5036884;28;45218;-68
2022/12/14 00:32:45;;;;;;;;;54.00;45.75;;;;;2.21;58.25;99194.22;5036179;28;46805;-66
2022/12/14 00:35:14;;;;;;;;;48.00;42.25;;;;;2.22;58.91;99195.91;5036825;28;45443;-67
2022/12/14 00:37:39;;;;;;;;;48.25;41.50;;;;;2.23;57.93;99189.84;5037063;28;45266;-73
2022/12/14 00:40:07;;;;;;;;;36.75;35.25;;;;;2.23;57.90;99188.06;5018767;28;45391;-67
2022/12/14 00:42:33;;;;;;;;;41.75;39.00;;;;;2.22;58.77;99181.19;5037579;28;46398;-65
2022/12/14 00:44:58;;;;;;;;;39.50;38.00;;;;;2.21;58.75;99174.28;5037234;28;45408;-70
2022/12/14 00:47:24;;;;;;;;;46.50;41.25;;;;;2.22;58.27;99178.59;5037108;28;45356;-68
2022/12/14 00:49:50;;;;;;;;;42.25;38.25;;;;;2.19;58.49;99176.94;5037230;28;45324;-65
2022/12/14 00:52:15;;;;;;;;;45.75;41.50;;;;;2.22;58.40;99173.41;5038116;28;46098;-69
2022/12/14 00:54:41;;;;;;;;;44.75;39.50;;;;;2.19;59.17;99169.16;5036288;28;45387;-71
2022/12/14 00:57:06;;;;;;;;;50.50;41.00;;;;;2.19;58.35;99168.28;5018637;28;45511;-70
2022/12/14 00:59:32;;;;;;;;;47.50;41.75;;;;;2.18;58.83;99175.25;5036213;28;45507;-68
2022/12/14 01:01:58;;;;;;;;;53.25;44.50;;;;;2.15;59.14;99174.47;5018192;28;46938;-68
2022/12/14 01:04:24;;;;;;;;;40.50;38.50;;;;;2.17;59.20;99170.09;5036100;28;45356;-68
2022/12/14 01:06:52;;;;;;;;;46.00;41.50;;;;;2.14;58.11;99163.25;5035846;28;45327;-69
2022/12/14 01:09:20;;;;;;;;;49.75;43.00;;;;;2.08;59.12;99160.81;5036087;28;45412;-72
2022/12/14 01:11:46;;;;;;;;;43.50;39.50;;;;;2.09;58.91;99182.41;5037583;28;45392;-72
2022/12/14 01:14:13;;;;;;;;;49.25;43.50;;;;;2.07;59.14;99185.03;5036957;28;45298;-72
2022/12/14 01:16:39;;;;;;;;;47.75;39.75;;;;;2.06;58.30;99178.16;5036071;28;45316;-74
2022/12/14 01:19:04;;;;;;;;;51.00;44.25;;;;;2.02;59.13;99186.91;5017936;28;45250;-69
2022/12/14 01:21:30;;;;;;;;;39.25;38.00;;;;;2.03;58.79;99196.41;5035229;28;45451;-68
2022/12/14 01:24:01;;;;;;;;;51.75;44.50;;;;;1.98;58.47;99203.44;5036143;28;45353;-71
2022/12/14 01:26:29;;;;;;;;;48.00;42.75;;;;;1.94;58.27;99205.28;5036015;28;45174;-74
2022/12/14 01:28:57;;;;;;;;;48.50;41.25;;;;;1.90;58.26;99221.84;5035892;28;45519;-69
2022/12/14 01:31:26;;;;;;;;;45.25;40.00;;;;;1.86;59.52;99220.22;5035928;28;46507;-73
2022/12/14 01:33:52;;;;;;;;;41.50;39.25;;;;;1.84;59.12;99217.63;5035615;28;45351;-68
2022/12/14 01:36:21;;;;;;;;;50.25;43.00;;;;;1.82;59.02;99211.66;5018282;28;45351;-74
2022/12/14 01:38:50;;;;;;;;;55.75;47.75;;;;;1.81;59.40;99211.69;5036931;28;45503;-73
2022/12/14 01:41:24;;;;;;;;;48.00;42.75;;;;;1.72;59.48;99197.22;5035351;28;46280;-71
2022/12/14 01:43:58;;;;;;;;;47.25;41.75;;;;;1.63;59.18;99193.16;5035020;28;45372;-68
2022/12/14 01:46:38;;;;;;;;;42.50;37.25;;;;;1.46;59.83;99165.91;5035852;28;45408;-73
2022/12/14 01:49:33;;;;;;;;;50.50;42.50;;;;;1.65;59.74;99216.41;5036321;28;45477;-70
2022/12/14 01:52:03;;;;;;;;;44.75;40.50;;;;;1.62;60.90;99219.09;5035090;28;45352;-73
2022/12/14 01:54:32;;;;;;;;;42.25;37.50;;;;;1.59;61.02;99218.28;5034540;28;45386;-74
2022/12/14 01:56:58;;;;;;;;;44.25;40.25;;;;;1.57;61.00;99211.41;5017685;28;45331;-70
2022/12/14 01:59:32;;;;;;;;;43.75;39.25;;;;;1.54;61.31;99216.69;5036611;28;45581;-70
2022/12/14 02:02:02;;;;;;;;;33.75;33.75;;;;;1.53;61.15;99205.47;5036906;28;45380;-66
2022/12/14 02:04:29;;;;;;;;;40.25;38.25;;;;;1.46;62.04;99196.16;5036748;28;45325;-65
2022/12/14 02:06:54;;;;;;;;;43.75;40.00;;;;;1.38;62.13;99196.34;5036826;28;45515;-71
2022/12/14 02:09:27;;;;;;;;;36.75;36.50;;;;;1.43;61.89;99214.38;5036264;28;45358;-68
2022/12/14 02:12:08;;;;;;;;;45.00;39.25;;;;;1.44;61.88;99213.47;5036223;28;45923;-74
2022/12/14 02:14:34;;;;;;;;;42.75;39.00;;;;;1.46;61.69;99209.94;5034810;28;45420;-72
2022/12/14 02:17:00;;;;;;;;;42.25;38.75;;;;;1.42;61.85;99189.34;5035551;28;45305;-71
2022/12/14 02:19:26;;;;;;;;;42.00;38.00;;;;;1.34;62.64;99179.16;5035934;28;45344;-66
2022/12/14 02:28:57;;;;;;;;;44.75;40.25;;;;;1.16;63.84;99157.16;5037023;28;45547;-70
2022/12/14 02:38:15;;;;;;;;;38.00;36.75;;;;;1.04;65.46;99145.34;5034172;28;45166;-73
2022/12/14 02:41:09;;;;;;;;;40.00;37.25;;;;;1.05;65.25;99143.59;5016605;28;45232;-73
2022/12/14 02:43:50;;;;;;;;;41.25;39.00;;;;;1.07;65.72;99149.63;5035101;28;45364;-73
2022/12/14 02:46:31;;;;;;;;;42.75;38.00;;;;;1.08;65.83;99126.25;5035659;28;46157;-72
2022/12/14 02:49:06;;;;;;;;;37.75;35.25;;;;;1.02;66.19;99116.91;5036706;28;45514;-72
2022/12/14 02:51:41;;;;;;;;;41.75;40.00;;;;;1.13;66.72;99139.13;5037611;28;45265;-72
2022/12/14 02:54:16;;;;;;;;;42.25;39.25;;;;;1.14;66.82;99136.47;5034824;28;45289;-73
2022/12/14 02:56:58;;;;;;;;;48.50;42.00;;;;;1.11;67.11;99109.81;5016683;28;47496;-72
2022/12/14 02:59:25;;;;;;;;;50.25;40.75;;;;;1.17;67.28;99107.06;5035682;28;45247;-72
2022/12/14 03:01:52;;;;;;;;;42.25;39.50;;;;;1.15;66.88;99098.50;5034288;28;45431;-72
2022/12/14 03:04:17;;;;;;;;;40.75;39.00;;;;;1.15;67.26;99094.13;5034992;28;45593;-70
2022/12/14 03:07:01;;;;;;;;;47.25;41.50;;;;;1.15;67.06;99099.31;5020278;28;46749;-73
2022/12/14 03:09:30;;;;;;;;;43.00;39.50;;;;;1.16;67.46;99098.44;5041777;28;45416;-72
2022/12/14 03:12:03;;;;;;;;;44.75;41.25;;;;;1.20;67.18;99090.59;5042698;28;45298;-72
2022/12/14 03:14:34;;;;;;;;;48.25;43.00;;;;;1.22;67.39;99097.44;5039307;28;45274;-68
2022/12/14 03:17:09;;;;;;;;;36.75;36.00;;;;;1.20;67.23;99101.81;5020229;28;46005;-70
2022/12/14 03:19:43;;;;;;;;;41.00;39.50;;;;;1.21;66.89;99100.06;5041670;28;45379;-68
2022/12/14 03:22:22;;;;;;;;;55.25;44.75;;;;;1.21;67.58;99100.06;5040841;28;45392;-67
2022/12/14 03:24:57;;;;;;;;;32.75;31.75;;;;;1.21;67.31;99113.88;5039073;28;45487;-70
2022/12/14 03:27:27;;;;;;;;;43.00;38.00;;;;;1.24;67.72;99118.97;5037677;28;45520;-73
2022/12/14 03:29:58;;;;;;;;;48.50;40.75;;;;;1.26;68.04;99119.78;5037494;28;45443;-72
2022/12/14 03:32:29;;;;;;;;;40.50;39.50;;;;;1.27;67.06;99105.94;5038374;28;45284;-73
2022/12/14 03:35:00;;;;;;;;;46.00;40.75;;;;;1.35;67.27;99100.53;5038374;28;45313;-75
2022/12/14 03:37:25;;;;;;;;;39.00;37.00;;;;;1.36;67.48;99104.00;5020446;28;47423;-71
2022/12/14 03:39:51;;;;;;;;;44.00;41.25;;;;;1.37;67.66;99091.00;5039532;28;45987;-73
2022/12/14 03:42:25;;;;;;;;;43.00;38.75;;;;;1.38;67.77;99095.28;5037372;28;45377;-68
2022/12/14 03:45:28;;;;;;;;;48.75;40.75;;;;;1.42;67.29;99090.88;5037816;28;45362;-67
2022/12/14 03:47:59;;;;;;;;;40.25;39.25;;;;;1.44;67.73;99092.53;5038419;28;45784;-69
2022/12/14 03:50:39;;;;;;;;;49.50;43.25;;;;;1.46;67.74;99097.69;5019772;28;45244;-68
2022/12/14 03:53:32;;;;;;;;;40.50;39.00;;;;;1.42;67.96;99077.94;5040074;28;45266;-69
2022/12/14 03:56:28;;;;;;;;;43.50;39.50;;;;;1.42;68.29;99070.16;5037485;28;45327;-71
2022/12/14 03:59:04;;;;;;;;;43.75;40.25;;;;;1.40;67.64;99065.00;5037282;28;45432;-72
2022/12/14 04:01:42;;;;;;;;;49.00;43.50;;;;;1.40;67.74;99062.41;5037795;28;45391;-67
2022/12/14 04:04:25;;;;;;;;;43.75;40.75;;;;;1.38;68.32;99071.13;5039871;28;45497;-70
2022/12/14 04:07:01;;;;;;;;;49.00;41.50;;;;;1.37;67.82;99077.19;5037351;28;45365;-71
2022/12/14 04:09:50;;;;;;;;;48.00;42.75;;;;;1.35;67.86;99073.81;5036522;28;46435;-73
2022/12/14 04:21:08;;;;;;;;;45.25;41.00;;;;;1.21;68.83;99058.59;5021736;28;45370;-71
2022/12/14 04:26:30;;;;;;;;;43.00;40.25;;;;;1.14;69.05;99050.16;5038478;28;45301;-72
2022/12/14 04:31:55;;;;;;;;;53.75;43.00;;;;;1.17;68.96;99039.72;5037172;28;45426;-70
2022/12/14 04:34:25;;;;;;;;;51.50;44.00;;;;;1.14;68.95;99043.22;5038163;28;45293;-71
2022/12/14 04:36:57;;;;;;;;;53.25;43.75;;;;;1.11;68.57;99045.06;5036856;28;44659;-69
2022/12/14 04:39:40;;;;;;;;;48.25;41.25;;;;;1.15;68.97;99050.09;5036257;28;45260;-73
2022/12/14 04:42:08;;;;;;;;;50.75;42.50;;;;;1.15;69.10;99049.28;5036469;28;46403;-73
2022/12/14 04:44:41;;;;;;;;;44.75;40.75;;;;;1.13;69.22;99057.06;5036192;28;45241;-71
2022/12/14 04:47:10;;;;;;;;;40.25;37.00;;;;;1.14;68.95;99073.47;5036663;28;45262;-73
2022/12/14 04:50:06;;;;;;;;;42.50;40.25;;;;;1.12;69.46;99070.91;5037510;28;45284;-69
2022/12/14 04:52:37;;;;;;;;;44.50;40.50;;;;;1.07;68.91;99069.34;5038339;28;45368;-68
2022/12/14 04:55:18;;;;;;;;;50.50;42.25;;;;;1.04;69.13;99075.44;5036674;28;45399;-70
2022/12/14 04:57:56;;;;;;;;;44.50;39.00;;;;;1.02;69.03;99072.03;5036825;28;45338;-71
2022/12/14 05:00:23;;;;;;;;;45.75;40.75;;;;;1.01;69.17;99071.16;5036604;28;45390;-68
2022/12/14 05:02:57;;;;;;;;;41.50;38.25;;;;;1.01;69.29;99076.34;5035718;28;45399;-71
2022/12/14 05:05:34;;;;;;;;;37.25;35.25;;;;;1.04;69.22;99085.78;5036091;28;45314;-67
2022/12/14 05:08:08;;;;;;;;;51.00;42.75;;;;;1.01;68.66;99086.72;5036010;28;45194;-69
2022/12/14 05:10:43;;;;;;;;;48.25;41.25;;;;;1.01;69.25;99080.69;5036740;28;45378;-65
2022/12/14 05:13:21;;;;;;;;;41.25;40.00;;;;;1.01;68.94;99075.50;5038891;28;45400;-67
2022/12/14 05:15:50;;;;;;;;;41.50;38.75;;;;;1.00;69.47;99072.06;5040631;28;45328;-65
2022/12/14 05:18:17;;;;;;;;;42.00;39.00;;;;;1.01;69.63;99057.38;5039664;28;45313;-64
2022/12/14 05:20:42;;;;;;;;;48.75;43.25;;;;;1.04;69.64;99059.03;5020486;28;45750;-67
2022/12/14 05:23:08;;;;;;;;;42.75;40.00;;;;;1.06;69.29;99049.47;5019022;28;48205;-72
2022/12/14 05:25:33;;;;;;;;;42.00;40.25;;;;;1.06;69.58;99047.75;5037228;28;45203;-69
2022/12/14 05:27:58;;;;;;;;;40.00;38.75;;;;;1.11;69.61;99047.66;5036975;28;45233;-68
2022/12/14 05:30:24;;;;;;;;;36.75;35.75;;;;;1.07;69.67;99049.47;5038925;28;44877;-70
2022/12/14 05:32:49;;;;;;;;;50.00;43.50;;;;;1.14;69.54;99056.19;5038782;28;46289;-71
2022/12/14 05:35:15;;;;;;;;;42.25;38.50;;;;;1.13;69.39;99053.66;5035672;28;45445;-73
2022/12/14 05:37:41;;;;;;;;;41.75;39.75;;;;;1.16;69.73;99059.56;5035795;28;45304;-71
2022/12/14 05:40:07;;;;;;;;;43.25;40.75;;;;;1.14;68.76;99056.19;5018905;28;45502;-74
2022/12/14 05:42:32;;;;;;;;;47.50;38.75;;;;;1.15;69.06;99054.47;5035580;28;46403;-73
2022/12/14 05:44:58;;;;;;;;;39.50;36.00;;;;;1.16;69.44;99059.56;5035408;28;45345;-72
2022/12/14 05:47:24;;;;;;;;;51.25;44.00;;;;;1.07;69.36;99051.22;5035119;28;45431;-67
2022/12/14 05:49:49;;;;;;;;;42.50;37.75;;;;;1.12;69.43;99068.31;5035311;28;45472;-69
2022/12/14 05:52:15;;;;;;;;;43.75;39.00;;;;;1.10;69.57;99077.88;5035799;28;45407;-69
2022/12/14 05:54:41;;;;;;;;;36.00;35.75;;;;;1.06;69.77;99078.84;5035452;28;45300;-69
2022/12/14 05:57:06;;;;;;;;;47.75;41.50;;;;;1.03;69.29;99081.50;5035791;28;51901;-68
2022/12/14 05:59:32;;;;;;;;;40.50;36.25;;;;;1.04;69.71;99093.56;5036454;28;45281;-71
2022/12/14 06:01:57;;;;;;;;;37.00;36.50;;;;;1.02;69.91;99088.41;5036253;28;45397;-69
2022/12/14 06:04:23;;;;;;;;;45.00;41.50;;;;;1.04;70.42;99092.69;5020422;28;45256;-71
2022/12/14 06:06:49;;;;;;;;;37.50;36.75;;;;;1.00;70.19;99092.78;5019462;28;45147;-68
2022/12/14 06:09:15;;;;;;;;;48.00;40.75;;;;;1.02;70.06;99093.59;5037583;28;45318;-70
2022/12/14 06:11:42;;;;;;;;;44.00;40.75;;;;;1.00;69.92;99090.19;5035846;28;46142;-65
2022/12/14 06:14:08;;;;;;;;;47.25;42.75;;;;;1.02;69.81;99091.00;5035543;28;45479;-67
2022/12/14 06:16:34;;;;;;;;;44.50;39.75;;;;;1.04;69.82;99092.69;5035902;28;45333;-69
2022/12/14 06:19:02;;;;;;;;;45.00;40.00;;;;;1.09;69.96;99099.47;5035050;28;45480;-66
2022/12/14 06:21:30;;;;;;;;;42.25;40.00;;;;;1.04;69.97;99084.94;5034548;28;46013;-69
2022/12/14 06:23:57;;;;;;;;;42.25;40.00;;;;;1.13;70.25;99100.25;5017002;28;45322;-68
2022/12/14 06:26:23;;;;;;;;;45.75;39.75;;;;;1.13;69.88;99106.28;5035193;28;45345;-71
2022/12/14 06:28:49;;;;;;;;;43.25;38.25;;;;;1.13;70.12;99106.28;5038601;28;45321;-70
2022/12/14 06:31:17;;;;;;;;;44.50;41.00;;;;;1.15;70.29;99090.72;5035807;28;45930;-68
2022/12/14 06:33:43;;;;;;;;;49.50;42.25;;;;;0.92;70.31;99061.03;5035192;28;45535;-70
2022/12/14 06:36:22;;;;;;;;;40.75;38.75;;;;;1.18;70.53;99090.63;5035842;28;45386;-72
2022/12/14 06:38:49;;;;;;;;;45.50;40.00;;;;;1.23;70.24;99096.56;5037502;28;45332;-68
2022/12/14 06:41:14;;;;;;;;;46.00;41.00;;;;;1.21;70.42;99093.16;5039591;28;46608;-71
2022/12/14 06:43:40;;;;;;;;;43.75;39.75;;;;;1.26;69.69;99095.59;5038264;28;45396;-70
2022/12/14 06:46:10;;;;;;;;;45.00;40.75;;;;;1.28;69.80;99089.50;5020147;28;46095;-69
2022/12/14 06:48:36;;;;;;;;;48.25;43.00;;;;;1.27;70.26;99094.72;5020797;28;45217;-66
2022/12/14 06:51:03;;;;;;;;;55.00;46.50;;;;;1.36;70.80;99101.41;5038627;28;46502;-70
2022/12/14 06:53:29;;;;;;;;;47.25;41.50;;;;;1.40;70.51;99097.84;5040397;28;45365;-67
2022/12/14 06:56:16;;;;;;;;;53.50;44.25;;;;;1.43;70.14;99100.34;5040684;28;45310;-65
2022/12/14 06:58:45;;;;;;;;;39.00;36.50;;;;;1.38;70.09;99100.47;5040724;28;45286;-69
2022/12/14 07:01:13;;;;;;;;;45.25;39.75;;;;;1.36;70.31;99102.25;5040523;28;46387;-69
2022/12/14 07:03:39;;;;;;;;;41.00;37.50;;;;;1.31;70.57;99107.56;5022628;28;45446;-70
2022/12/14 07:06:05;;;;;;;;;45.50;42.00;;;;;1.31;70.88;99112.75;5040243;28;45499;-67
2022/12/14 07:08:34;;;;;;;;;41.75;39.00;;;;;1.27;70.63;99111.13;5038454;28;45424;-69
2022/12/14 07:11:11;;;;;;;;;47.50;41.75;;;;;1.26;71.21;99126.69;5038453;28;45356;-68
2022/12/14 07:13:37;;;;;;;;;41.75;38.75;;;;;1.24;70.83;99133.66;5039795;28;45306;-67
2022/12/14 07:16:05;;;;;;;;;47.00;40.75;;;;;1.21;71.15;99134.59;5039338;28;45398;-70
2022/12/14 07:18:31;;;;;;;;;41.25;38.75;;;;;1.22;71.59;99144.06;5041575;28;45606;-71
2022/12/14 07:21:00;;;;;;;;;48.00;42.50;;;;;1.19;71.46;99148.47;5021975;28;47027;-70
2022/12/14 07:23:28;;;;;;;;;44.50;40.50;;;;;0.93;71.63;99124.88;5038588;28;45381;-73
2022/12/14 07:26:00;;;;;;;;;43.50;38.00;;;;;1.10;71.40;99157.31;5037301;28;45521;-66
2022/12/14 07:28:26;;;;;;;;;50.75;43.25;;;;;1.01;71.56;99151.44;5019863;28;45630;-71
2022/12/14 07:30:54;;;;;;;;;58.00;45.00;;;;;0.96;71.78;99148.13;5034690;28;45741;-73
2022/12/14 07:33:19;;;;;;;;;48.50;43.50;;;;;0.95;72.48;99143.81;5038066;28;45385;-72
2022/12/14 07:35:46;;;;;;;;;53.00;45.25;;;;;1.07;72.42;99162.56;5019198;28;45832;-67
2022/12/14 07:38:11;;;;;;;;;40.50;37.75;;;;;1.05;72.31;99169.50;5039734;28;45474;-70
2022/12/14 07:40:36;;;;;;;;;41.75;40.00;;;;;1.02;72.36;99179.03;5039662;28;45458;-68
2022/12/14 07:43:02;;;;;;;;;47.50;40.25;;;;;0.97;72.53;99173.13;5038709;28;45522;-68
2022/12/14 07:45:27;;;;;;;;;46.25;41.00;;;;;0.97;71.81;99177.47;5038847;28;45347;-71
2022/12/14 07:47:53;;;;;;;;;46.50;42.25;;;;;0.99;71.85;99186.06;5028680;28;45664;-72
2022/12/14 07:50:18;;;;;;;;;42.25;39.25;;;;;0.94;72.41;99180.13;5038644;28;45354;-71
2022/12/14 07:52:44;;;;;;;;;47.25;41.75;;;;;0.93;72.24;99204.31;5037832;28;45273;-72
2022/12/14 07:55:09;;;;;;;;;45.75;42.25;;;;;0.79;72.22;99184.78;5039556;28;45297;-71
2022/12/14 07:57:34;;;;;;;;;44.25;40.00;;;;;0.85;72.62;99196.72;5039870;28;45553;-71
2022/12/14 08:00:00;;;;;;;;;49.25;43.50;;;;;0.86;72.66;99195.81;5013837;28;47850;-71
2022/12/14 08:02:25;;;;;;;;;49.50;42.50;;;;;0.93;73.08;99191.38;5040502;28;45186;-71
2022/12/14 08:04:52;;;;;;;;;45.75;41.50;;;;;1.01;72.78;99192.03;5041580;28;45351;-71
2022/12/14 08:07:18;;;;;;;;;50.00;44.00;;;;;0.99;72.82;99186.88;5041276;28;45362;-64
2022/12/14 08:09:43;;;;;;;;;46.00;42.25;;;;;1.02;72.70;99193.75;5038038;28;45919;-66
2022/12/14 08:12:08;;;;;;;;;47.00;42.00;;;;;1.00;72.90;99174.81;5036789;28;45376;-71
2022/12/14 08:14:34;;;;;;;;;52.25;44.75;;;;;1.17;73.37;99192.53;5021394;28;45483;-64
2022/12/14 08:16:59;;;;;;;;;54.50;44.50;;;;;1.24;73.04;99185.47;5037735;28;45288;-69
2022/12/14 08:19:24;;;;;;;;;61.00;50.50;;;;;1.29;72.33;99194.84;5038380;28;46178;-73
2022/12/14 08:21:50;;;;;;;;;49.25;44.25;;;;;1.26;72.51;99188.88;5019267;28;45352;-71
2022/12/14 08:24:15;;;;;;;;;54.00;44.50;;;;;1.30;71.96;99195.66;5036430;28;45419;-71
2022/12/14 08:26:41;;;;;;;;;51.25;40.50;;;;;1.31;71.36;99198.25;5038666;28;45356;-73
2022/12/14 08:29:06;;;;;;;;;50.00;43.75;;;;;1.32;71.62;99193.88;5039170;28;45973;-76
2022/12/14 08:31:32;;;;;;;;;53.75;46.50;;;;;1.34;71.81;99193.88;5038865;28;45456;-75
2022/12/14 08:33:59;;;;;;;;;55.50;47.50;;;;;1.35;71.71;99198.16;5037504;28;45219;-77
2022/12/14 08:36:30;;;;;;;;;50.75;44.50;;;;;1.32;71.94;99188.72;5037223;28;45645;-73
2022/12/14 08:38:57;;;;;;;;;49.75;42.25;;;;;1.28;71.55;99187.94;5036245;28;46881;-77
2022/12/14 08:41:24;;;;;;;;;41.75;39.75;;;;;1.11;71.76;99169.38;5037364;28;45265;-76
2022/12/14 08:43:52;;;;;;;;;45.50;39.25;;;;;1.39;71.78;99210.16;5037052;28;45230;-72
2022/12/14 08:46:19;;;;;;;;;44.75;39.75;;;;;1.43;71.89;99212.63;5036923;28;45490;-73
2022/12/14 08:48:45;;;;;;;;;50.75;44.75;;;;;1.43;71.88;99198.81;5036582;28;45375;-76
2022/12/14 08:51:11;;;;;;;;;47.00;40.75;;;;;1.50;71.62;99194.31;5036980;28;45517;-73
2022/12/14 08:53:37;;;;;;;;;51.00;41.00;;;;;1.53;71.23;99204.59;5036661;28;45504;-77
2022/12/14 08:56:10;;;;;;;;;64.00;52.50;;;;;1.56;70.82;99201.94;5038826;28;45301;-78
2022/12/14 08:58:36;;;;;;;;;47.50;42.00;;;;;1.62;71.38;99206.13;5035754;28;46170;-73
2022/12/14 09:01:14;;;;;;;;;52.00;44.25;;;;;1.68;71.27;99214.63;5036480;28;45426;-73
2022/12/14 09:03:41;;;;;;;;;47.75;42.25;;;;;1.69;70.77;99218.91;5036080;28;45318;-74
2022/12/14 09:06:09;;;;;;;;;45.75;40.75;;;;;1.70;70.36;99218.03;5036941;28;45251;-73
2022/12/14 09:08:34;;;;;;;;;45.25;41.00;;;;;1.74;69.94;99229.16;5035887;28;46090;-74
2022/12/14 09:11:03;;;;;;;;;50.75;44.75;;;;;1.76;70.25;99224.78;5018084;28;45419;-69
2022/12/14 09:13:29;;;;;;;;;42.00;39.25;;;;;1.82;70.29;99224.59;5018379;28;45352;-68
2022/12/14 09:16:03;;;;;;;;;51.50;41.50;;;;;1.89;70.28;99223.56;5037053;28;45592;-77
2022/12/14 09:18:29;;;;;;;;;48.50;42.75;;;;;1.76;69.78;99193.66;5039437;28;45452;-72
2022/12/14 09:20:55;;;;;;;;;52.00;45.00;;;;;1.81;69.44;99209.94;5038735;28;45261;-68
2022/12/14 09:23:26;;;;;;;;;50.25;42.50;;;;;1.98;69.11;99237.16;5018155;28;45255;-71
2022/12/14 09:26:22;;;;;;;;;66.00;53.50;;;;;1.90;69.55;99230.44;5053602;28;45305;-76
2022/12/14 09:28:51;;;;;;;;;54.00;42.75;;;;;2.02;68.94;99256.94;5037423;28;46408;-73
2022/12/14 09:31:20;;;;;;;;;43.75;39.50;;;;;1.88;68.55;99246.94;5020523;28;45290;-76
2022/12/14 09:33:46;;;;;;;;;42.50;39.25;;;;;1.89;67.72;99261.63;5037620;28;45440;-73
2022/12/14 09:36:14;;;;;;;;;49.50;43.25;;;;;1.85;68.89;99267.78;5037304;28;45563;-68
2022/12/14 09:38:40;;;;;;;;;43.25;40.00;;;;;1.89;68.51;99278.00;5042717;28;45363;-69
2022/12/14 09:41:17;;;;;;;;;50.25;43.25;;;;;1.95;68.42;99269.25;5037715;28;45239;-76
2022/12/14 09:43:52;;;;;;;;;52.75;43.50;;;;;2.01;69.22;99284.66;5039239;28;45360;-71
2022/12/14 09:46:17;;;;;;;;;54.50;47.00;;;;;2.06;68.70;99268.94;5037122;28;45364;-71
2022/12/14 09:48:43;;;;;;;;;57.00;47.50;;;;;1.93;68.28;99239.91;5036090;28;45376;-75
2022/12/14 09:51:15;;;;;;;;;48.50;42.50;;;;;2.12;68.26;99274.00;5036052;28;45270;-70
2022/12/14 09:53:43;;;;;;;;;53.25;43.25;;;;;2.15;67.70;99273.91;5037080;28;45385;-71
2022/12/14 09:56:18;;;;;;;;;54.50;46.25;;;;;2.14;68.00;99274.81;5036964;28;45272;-73
2022/12/14 09:58:53;;;;;;;;;50.25;44.00;;;;;2.14;68.30;99274.81;5036516;28;45282;-72
2022/12/14 10:01:21;;;;;;;;;49.00;41.50;;;;;2.15;67.99;99280.84;5035970;28;45391;-75
2022/12/14 10:04:24;;;;;;;;;49.75;40.50;;;;;2.06;67.80;99265.50;5036070;28;45329;-75
2022/12/14 10:06:58;;;;;;;;;52.25;44.25;;;;;2.12;67.53;99263.63;5036538;28;45451;-77
2022/12/14 10:09:36;;;;;;;;;54.50;45.25;;;;;2.14;67.48;99267.03;5039065;28;46189;-76
2022/12/14 10:12:20;;;;;;;;;53.75;46.00;;;;;2.14;67.14;99268.75;5036770;28;45842;-71
2022/12/14 10:14:58;;;;;;;;;58.50;47.50;;;;;2.15;66.66;99273.06;5035428;28;45305;-75
2022/12/14 10:17:37;;;;;;;;;50.75;44.00;;;;;2.22;66.81;99268.56;5035743;28;45265;-75
2022/12/14 10:20:17;;;;;;;;;50.50;43.75;;;;;2.21;67.16;99262.50;5034815;28;46179;-70
2022/12/14 10:22:46;;;;;;;;;56.25;46.00;;;;;2.33;66.52;99277.75;5017337;28;45398;-73
2022/12/14 10:25:23;;;;;;;;;51.00;44.50;;;;;2.34;66.21;99283.78;5035352;28;45397;-68
2022/12/14 10:28:15;;;;;;;;;53.00;43.75;;;;;2.40;66.37;99274.97;5035481;28;45296;-69
2022/12/14 10:30:42;;;;;;;;;53.25;45.75;;;;;2.47;65.58;99263.53;5024620;28;46413;-70
2022/12/14 10:33:28;;;;;;;;;57.75;47.75;;;;;2.55;66.74;99276.31;5036931;28;45293;-67
2022/12/14 10:35:57;;;;;;;;;55.50;47.00;;;;;2.62;65.71;99265.69;5035999;28;45357;-69
2022/12/14 10:38:49;;;;;;;;;53.00;42.25;;;;;2.71;65.05;99277.56;5036448;28;45193;-72
2022/12/14 10:41:40;;;;;;;;;51.75;44.25;;;;;2.74;64.88;99277.47;5035480;28;46364;-73
2022/12/14 10:44:41;;;;;;;;;51.00;43.00;;;;;2.74;65.16;99268.84;5026190;28;45463;-74
2022/12/14 10:47:19;;;;;;;;;56.00;44.50;;;;;2.70;65.73;99269.84;5035909;28;45245;-74
2022/12/14 10:49:47;;;;;;;;;57.25;47.25;;;;;2.69;64.54;99274.16;5035993;28;45290;-73
2022/12/14 10:52:17;;;;;;;;;46.25;41.00;;;;;2.63;64.58;99274.34;5035840;28;45504;-75
2022/12/14 10:54:51;;;;;;;;;52.25;44.25;;;;;2.55;63.76;99282.34;5036727;28;45301;-72
2022/12/14 10:57:22;;;;;;;;;57.50;47.25;;;;;2.51;64.43;99282.47;5020574;28;45331;-75
2022/12/14 10:59:47;;;;;;;;;51.75;45.25;;;;;2.41;64.68;99269.75;5051170;28;45681;-73
2022/12/14 11:02:17;;;;;;;;;64.75;52.25;;;;;2.54;65.37;99280.63;5034534;28;46038;-68
2022/12/14 11:04:48;;;;;;;;;52.00;45.00;;;;;2.28;64.77;99243.28;5035371;28;45334;-73
2022/12/14 11:07:15;;;;;;;;;53.50;45.50;;;;;2.51;63.96;99282.47;5035238;28;45344;-75
2022/12/14 11:09:41;;;;;;;;;62.75;52.25;;;;;2.52;64.33;99286.78;5000619;28;45365;-75
2022/12/14 11:12:14;;;;;;;;;75.00;59.75;;;;;2.54;64.92;99288.41;5018931;28;48412;-74
2022/12/14 11:14:58;;;;;;;;;57.75;48.00;;;;;2.59;64.96;99299.53;5037679;28;45377;-76
2022/12/14 11:17:35;;;;;;;;;60.50;50.00;;;;;2.66;63.87;99296.78;5036432;28;45309;-74
2022/12/14 11:20:21;;;;;;;;;58.00;48.25;;;;;2.63;64.61;99295.09;5037115;28;45555;-73
2022/12/14 11:23:04;;;;;;;;;67.75;54.25;;;;;2.59;64.07;99290.91;5035521;28;45494;-74
2022/12/14 11:25:32;;;;;;;;;60.75;51.50;;;;;2.61;63.92;99286.50;5035114;28;45344;-72
2022/12/14 11:28:00;;;;;;;;;65.75;54.25;;;;;2.54;64.00;99279.78;5038077;28;45265;-75
2022/12/14 11:30:27;;;;;;;;;56.75;48.00;;;;;2.63;64.06;99284.72;5038307;28;45543;-77
2022/12/14 11:32:54;;;;;;;;;70.50;56.00;;;;;2.69;63.97;99286.31;5038360;28;45406;-76
2022/12/14 11:35:20;;;;;;;;;63.25;53.00;;;;;2.74;63.99;99290.47;5037986;28;45427;-75
2022/12/14 11:37:49;;;;;;;;;58.25;50.00;;;;;2.74;63.35;99287.88;5038716;28;45396;-73
2022/12/14 11:40:36;;;;;;;;;61.75;51.75;;;;;2.66;62.05;99300.22;5020550;28;45542;-75
2022/12/14 11:43:03;;;;;;;;;55.25;47.00;;;;;2.67;62.62;99307.09;5039201;28;45190;-78
2022/12/14 11:45:31;;;;;;;;;58.00;47.25;;;;;2.68;63.20;99311.41;5054857;28;45404;-75
2022/12/14 11:48:18;;;;;;;;;54.50;44.50;;;;;2.61;63.56;99297.72;5021383;28;45321;-76
2022/12/14 11:50:46;;;;;;;;;59.25;49.25;;;;;2.69;63.25;99300.13;5019966;28;45471;-77
2022/12/14 11:53:14;;;;;;;;;59.00;50.00;;;;;2.69;62.52;99305.31;5037702;28;45408;-77
2022/12/14 11:56:04;;;;;;;;;73.75;58.00;;;;;2.74;62.30;99308.63;5037767;28;45491;-74
2022/12/14 11:58:37;;;;;;;;;74.25;59.75;;;;;2.78;63.20;99293.84;5038050;28;45297;-79
2022/12/14 12:01:13;;;;;;;;;55.75;47.00;;;;;2.87;61.67;99290.97;5039730;28;45266;-73
2022/12/14 12:03:48;;;;;;;;;55.75;47.25;;;;;2.90;62.19;99296.06;5041329;28;46031;-72
2022/12/14 12:06:21;;;;;;;;;54.75;46.50;;;;;2.96;62.00;99296.78;5020637;28;45381;-73
2022/12/14 12:08:57;;;;;;;;;49.00;43.00;;;;;2.97;61.95;99298.50;5038054;28;45363;-77